Time;durP1;ratioP1;P1;durP2;ratioP2;P2;SDS_P1;SDS_P2;PMS_P1;PMS_P2;Temp;Humidity;BMP_temperature;BMP_pressure;BME280_temperature;BME280_humidity;BME280_pressure;Samples;Min_cycle;Max_cycle;Signal;HPM_P1;HPM_P2
2022/06/26 00:01:31;;;;;;;15.80;13.10;;;;;;;;;;4970030;28;20413;-62
2022/06/26 00:07:10;;;;;;;13.60;12.20;;;;;;;;;;4969777;28;20446;-61
2022/06/26 00:09:39;;;;;;;15.20;12.73;;;;;;;;;;4970104;28;20137;-61
2022/06/26 00:12:05;;;;;;;16.13;12.67;;;;;;;;;;4969350;28;20134;-61
2022/06/26 00:14:31;;;;;;;17.27;14.23;;;;;;;;;;4969171;28;20054;-61
2022/06/26 00:16:57;;;;;;;17.43;14.93;;;;;;;;;;4969639;28;20461;-62
2022/06/26 00:19:23;;;;;;;18.73;15.47;;;;;;;;;;4968941;28;20059;-62
2022/06/26 00:21:50;;;;;;;14.47;12.97;;;;;;;;;;4969897;28;20563;-62
2022/06/26 00:24:19;;;;;;;17.77;15.03;;;;;;;;;;4973412;28;20065;-62
2022/06/26 00:26:45;;;;;;;15.33;13.47;;;;;;;;;;4973187;28;20058;-61
2022/06/26 00:29:11;;;;;;;14.33;12.93;;;;;;;;;;4973118;28;20129;-62
2022/06/26 00:31:37;;;;;;;16.30;14.70;;;;;;;;;;4973426;28;20093;-62
2022/06/26 00:34:03;;;;;;;17.23;14.83;;;;;;;;;;4973126;28;20050;-62
2022/06/26 00:36:29;;;;;;;17.83;15.23;;;;;;;;;;4972612;28;20062;-62
2022/06/26 00:38:58;;;;;;;21.57;17.37;;;;;;;;;;4972939;28;20048;-61
2022/06/26 00:41:24;;;;;;;26.10;18.57;;;;;;;;;;4973318;28;20053;-62
2022/06/26 00:43:50;;;;;;;22.33;18.00;;;;;;;;;;4972555;28;20130;-61
2022/06/26 00:46:16;;;;;;;18.43;16.00;;;;;;;;;;4973074;28;20046;-61
2022/06/26 00:48:42;;;;;;;20.07;17.60;;;;;;;;;;4973180;28;20047;-62
2022/06/26 00:51:10;;;;;;;18.80;16.90;;;;;;;;;;4973032;28;20050;-62
2022/06/26 00:53:36;;;;;;;20.77;17.83;;;;;;;;;;4972705;28;20129;-61
2022/06/26 00:56:03;;;;;;;22.40;18.83;;;;;;;;;;4973282;28;20113;-62
2022/06/26 00:58:29;;;;;;;25.93;18.60;;;;;;;;;;4972872;28;20134;-61
2022/06/26 01:00:55;;;;;;;25.50;20.27;;;;;;;;;;4972324;28;20509;-61
2022/06/26 01:03:21;;;;;;;22.73;19.57;;;;;;;;;;4972815;28;20047;-62
2022/06/26 01:05:47;;;;;;;25.50;21.27;;;;;;;;;;4972685;28;20117;-62
2022/06/26 01:08:13;;;;;;;31.63;21.33;;;;;;;;;;4972746;28;20051;-62
2022/06/26 01:10:39;;;;;;;23.37;16.97;;;;;;;;;;4972680;28;20590;-62
2022/06/26 01:13:06;;;;;;;26.67;19.23;;;;;;;;;;4972258;28;20046;-62
2022/06/26 01:15:33;;;;;;;29.83;20.40;;;;;;;;;;4972504;28;20406;-62
2022/06/26 01:17:59;;;;;;;35.70;22.43;;;;;;;;;;4972773;28;20050;-62
2022/06/26 01:20:27;;;;;;;30.00;19.97;;;;;;;;;;4971831;28;20051;-62
2022/06/26 01:22:57;;;;;;;25.80;19.33;;;;;;;;;;4972795;28;20063;-62
2022/06/26 01:25:23;;;;;;;56.67;24.50;;;;;;;;;;4972365;28;20047;-65
2022/06/26 01:27:49;;;;;;;51.47;25.40;;;;;;;;;;4972337;28;20047;-63
2022/06/26 01:30:15;;;;;;;41.73;27.00;;;;;;;;;;4970646;28;20057;-62
2022/06/26 01:32:42;;;;;;;47.40;30.40;;;;;;;;;;4972415;28;20607;-62
2022/06/26 01:35:08;;;;;;;61.27;35.27;;;;;;;;;;4971789;28;20134;-63
2022/06/26 01:37:37;;;;;;;49.30;31.10;;;;;;;;;;4972436;28;20038;-63
2022/06/26 01:40:03;;;;;;;47.80;31.37;;;;;;;;;;4954925;28;20051;-63
2022/06/26 01:42:32;;;;;;;61.73;32.87;;;;;;;;;;4971794;28;20489;-64
2022/06/26 01:44:58;;;;;;;62.37;34.43;;;;;;;;;;4972061;28;20135;-64
2022/06/26 01:47:24;;;;;;;96.33;45.40;;;;;;;;;;4972029;28;20133;-64
2022/06/26 01:49:52;;;;;;;59.67;33.57;;;;;;;;;;4971629;28;20078;-65
2022/06/26 01:52:18;;;;;;;121.47;44.07;;;;;;;;;;4971780;28;20089;-65
2022/06/26 01:54:47;;;;;;;62.17;36.10;;;;;;;;;;4971762;28;20055;-66
2022/06/26 01:57:13;;;;;;;90.53;44.93;;;;;;;;;;4971267;28;20093;-65
2022/06/26 01:59:39;;;;;;;153.77;63.43;;;;;;;;;;4963255;28;20047;-65
2022/06/26 02:02:05;;;;;;;69.87;41.13;;;;;;;;;;4952692;28;20044;-66
2022/06/26 02:04:31;;;;;;;61.60;37.23;;;;;;;;;;4951467;28;20054;-65
2022/06/26 02:06:57;;;;;;;151.30;61.73;;;;;;;;;;4950769;29;20047;-65
2022/06/26 02:14:53;;;;;;;108.30;50.83;;;;;;;;;;4970439;28;20051;-65
2022/06/26 02:17:22;;;;;;;62.60;36.33;;;;;;;;;;4971095;28;20046;-64
2022/06/26 02:19:48;;;;;;;113.63;50.87;;;;;;;;;;4971446;28;20083;-64
2022/06/26 02:22:14;;;;;;;41.77;27.13;;;;;;;;;;4971469;28;20062;-64
2022/06/26 02:24:41;;;;;;;87.00;43.80;;;;;;;;;;4970651;28;20054;-65
2022/06/26 02:27:12;;;;;;;49.90;31.30;;;;;;;;;;4970665;28;20038;-64
2022/06/26 02:29:38;;;;;;;160.67;62.17;;;;;;;;;;4969572;28;20198;-65
2022/06/26 02:32:07;;;;;;;86.53;44.80;;;;;;;;;;4969466;28;20074;-64
2022/06/26 02:34:33;;;;;;;48.10;29.27;;;;;;;;;;4970439;28;20102;-65
2022/06/26 02:36:59;;;;;;;83.70;37.90;;;;;;;;;;4970944;28;20054;-64
2022/06/26 02:39:25;;;;;;;40.83;23.63;;;;;;;;;;4969882;28;20054;-64
2022/06/26 02:41:51;;;;;;;43.73;26.47;;;;;;;;;;4970820;28;20437;-65
2022/06/26 02:44:17;;;;;;;46.27;26.47;;;;;;;;;;4970920;28;20094;-64
2022/06/26 02:46:43;;;;;;;47.53;26.30;;;;;;;;;;4969983;28;20046;-64
2022/06/26 02:49:09;;;;;;;66.63;31.63;;;;;;;;;;4970837;28;20739;-64
2022/06/26 02:51:35;;;;;;;39.83;23.63;;;;;;;;;;4970715;28;20042;-64
2022/06/26 02:54:01;;;;;;;47.80;27.87;;;;;;;;;;4970530;28;20072;-64
2022/06/26 02:56:27;;;;;;;51.10;28.57;;;;;;;;;;4970591;28;20654;-64
2022/06/26 02:58:53;;;;;;;49.73;30.27;;;;;;;;;;4970319;28;20051;-64
2022/06/26 03:01:22;;;;;;;56.57;29.33;;;;;;;;;;4970296;28;20403;-65
2022/06/26 03:03:48;;;;;;;44.23;22.60;;;;;;;;;;4970528;28;20066;-64
2022/06/26 03:06:14;;;;;;;29.53;18.73;;;;;;;;;;4970600;28;20050;-64
2022/06/26 03:08:43;;;;;;;43.07;21.93;;;;;;;;;;4970616;28;20074;-64
2022/06/26 03:11:09;;;;;;;32.43;18.93;;;;;;;;;;4970168;28;20046;-64
2022/06/26 03:13:35;;;;;;;29.80;18.77;;;;;;;;;;4969955;28;20047;-64
2022/06/26 03:16:01;;;;;;;28.53;17.07;;;;;;;;;;4970336;28;20400;-64
2022/06/26 03:18:30;;;;;;;23.47;15.40;;;;;;;;;;4970336;28;20042;-64
2022/06/26 03:20:56;;;;;;;34.20;18.93;;;;;;;;;;4969693;28;20456;-64
2022/06/26 03:24:01;;;;;;;27.70;17.87;;;;;;;;;;4969088;28;20062;-64
2022/06/26 03:26:12;;;;;;;29.23;17.17;;;;;;;;;;4966483;28;20053;-64
2022/06/26 03:28:38;;;;;;;23.80;13.70;;;;;;;;;;4969808;28;20158;-64
2022/06/26 03:31:04;;;;;;;22.63;15.43;;;;;;;;;;4970059;28;20578;-65
2022/06/26 03:33:30;;;;;;;34.53;19.17;;;;;;;;;;4969710;28;20137;-64
2022/06/26 03:35:56;;;;;;;19.00;12.73;;;;;;;;;;4969601;28;20134;-64
2022/06/26 03:38:22;;;;;;;29.10;17.37;;;;;;;;;;4969247;28;20134;-64
2022/06/26 03:40:48;;;;;;;22.60;13.90;;;;;;;;;;4969998;28;20078;-64
2022/06/26 03:43:14;;;;;;;22.93;12.93;;;;;;;;;;4969432;28;20779;-64
2022/06/26 03:45:42;;;;;;;28.07;14.60;;;;;;;;;;4969538;28;20058;-64
2022/06/26 03:48:11;;;;;;;21.07;13.13;;;;;;;;;;4969367;28;20069;-65
2022/06/26 03:50:37;;;;;;;14.10;11.27;;;;;;;;;;4969520;28;20051;-64
2022/06/26 03:53:03;;;;;;;20.87;12.50;;;;;;;;;;4968760;28;20142;-64
2022/06/26 03:55:29;;;;;;;25.63;13.67;;;;;;;;;;4969337;28;20129;-64
2022/06/26 03:57:55;;;;;;;19.03;12.60;;;;;;;;;;4956230;28;20079;-64
2022/06/26 04:00:21;;;;;;;19.73;13.33;;;;;;;;;;4975841;28;20054;-64
2022/06/26 04:02:47;;;;;;;20.47;12.60;;;;;;;;;;4976456;28;20046;-65
2022/06/26 04:05:13;;;;;;;18.37;11.40;;;;;;;;;;4975995;28;20520;-64
2022/06/26 04:07:39;;;;;;;14.30;10.60;;;;;;;;;;4975970;28;20050;-64
2022/06/26 04:10:05;;;;;;;15.63;10.80;;;;;;;;;;4976310;28;20047;-65
2022/06/26 04:12:31;;;;;;;16.77;11.57;;;;;;;;;;4975535;28;20081;-64
2022/06/26 04:14:57;;;;;;;15.40;11.27;;;;;;;;;;4976196;28;20051;-64
2022/06/26 04:17:23;;;;;;;14.03;10.87;;;;;;;;;;4975685;28;20047;-64
2022/06/26 04:19:49;;;;;;;15.73;10.87;;;;;;;;;;4958242;28;20081;-64
2022/06/26 04:22:16;;;;;;;13.70;10.33;;;;;;;;;;4975385;28;20179;-64
2022/06/26 04:24:42;;;;;;;14.20;11.43;;;;;;;;;;4976041;28;20059;-64
2022/06/26 04:27:08;;;;;;;15.47;11.83;;;;;;;;;;4975772;28;20509;-65
2022/06/26 04:29:34;;;;;;;16.53;11.47;;;;;;;;;;4976043;28;20051;-64
2022/06/26 04:32:00;;;;;;;24.70;14.23;;;;;;;;;;4975858;28;20042;-64
2022/06/26 04:34:26;;;;;;;16.00;11.50;;;;;;;;;;4975627;28;20089;-64
2022/06/26 04:36:52;;;;;;;15.33;12.20;;;;;;;;;;4975545;28;20047;-65
2022/06/26 04:39:18;;;;;;;20.00;13.33;;;;;;;;;;4975946;28;20043;-65
2022/06/26 04:41:44;;;;;;;18.00;12.67;;;;;;;;;;4975702;28;20051;-64
2022/06/26 04:44:11;;;;;;;25.53;15.40;;;;;;;;;;4975369;28;20050;-65
2022/06/26 04:46:38;;;;;;;15.10;12.07;;;;;;;;;;4975931;28;20042;-66
2022/06/26 04:49:05;;;;;;;19.67;13.00;;;;;;;;;;4972385;28;20120;-65
2022/06/26 04:51:31;;;;;;;19.60;11.97;;;;;;;;;;4963858;28;20046;-65
2022/06/26 04:53:57;;;;;;;21.13;12.47;;;;;;;;;;4975335;28;20047;-64
2022/06/26 04:56:23;;;;;;;14.80;11.70;;;;;;;;;;4975092;28;20062;-65
2022/06/26 04:58:49;;;;;;;16.27;11.63;;;;;;;;;;4975695;28;20047;-65
2022/06/26 05:01:15;;;;;;;18.00;12.60;;;;;;;;;;4975510;28;20615;-64
2022/06/26 05:03:41;;;;;;;16.97;12.17;;;;;;;;;;4974727;28;20105;-65
2022/06/26 05:06:07;;;;;;;17.60;12.23;;;;;;;;;;4975178;28;20421;-65
2022/06/26 05:08:33;;;;;;;14.93;11.43;;;;;;;;;;4972802;28;20043;-64
2022/06/26 05:10:59;;;;;;;13.73;10.53;;;;;;;;;;4972177;28;20043;-65
2022/06/26 05:13:25;;;;;;;13.87;11.17;;;;;;;;;;4971958;28;20053;-64
2022/06/26 05:15:52;;;;;;;14.97;12.50;;;;;;;;;;4972096;28;20047;-64
2022/06/26 05:18:18;;;;;;;17.80;12.57;;;;;;;;;;4970876;28;20058;-64
2022/06/26 05:20:44;;;;;;;15.03;11.23;;;;;;;;;;4971985;28;20066;-65
2022/06/26 05:23:11;;;;;;;15.73;11.40;;;;;;;;;;4971426;28;20054;-65
2022/06/26 05:25:39;;;;;;;16.57;11.27;;;;;;;;;;4971444;28;20039;-65
2022/06/26 05:28:05;;;;;;;16.33;12.60;;;;;;;;;;4970740;28;20404;-64
2022/06/26 05:30:31;;;;;;;19.40;14.43;;;;;;;;;;4962402;28;20569;-64
2022/06/26 05:32:57;;;;;;;23.70;13.90;;;;;;;;;;4963156;28;20720;-64
2022/06/26 05:35:23;;;;;;;17.47;12.63;;;;;;;;;;4970977;28;20039;-64
2022/06/26 05:37:49;;;;;;;15.83;12.63;;;;;;;;;;4960814;28;20114;-64
2022/06/26 05:40:15;;;;;;;21.87;14.77;;;;;;;;;;4967014;28;20035;-64
2022/06/26 05:42:41;;;;;;;27.73;16.60;;;;;;;;;;4967973;28;20039;-64
2022/06/26 05:45:07;;;;;;;27.73;15.97;;;;;;;;;;4965567;28;20039;-64
2022/06/26 05:47:33;;;;;;;19.57;14.40;;;;;;;;;;4968907;28;20039;-64
2022/06/26 05:49:59;;;;;;;22.40;15.53;;;;;;;;;;4962968;28;20046;-65
2022/06/26 05:52:26;;;;;;;19.37;14.90;;;;;;;;;;4971451;28;20039;-64
2022/06/26 05:54:52;;;;;;;22.93;16.57;;;;;;;;;;4937129;28;20093;-64
2022/06/26 05:57:19;;;;;;;33.33;18.30;;;;;;;;;;4969910;28;20055;-65
2022/06/26 05:59:46;;;;;;;29.60;18.70;;;;;;;;;;4971189;28;20133;-64
2022/06/26 06:02:12;;;;;;;18.30;15.87;;;;;;;;;;4962925;28;20493;-65
2022/06/26 06:04:38;;;;;;;19.53;16.97;;;;;;;;;;4961983;28;20035;-65
2022/06/26 06:07:05;;;;;;;23.10;16.53;;;;;;;;;;4964365;28;20113;-65
2022/06/26 06:09:31;;;;;;;22.47;16.13;;;;;;;;;;4970831;28;20292;-64
2022/06/26 06:11:58;;;;;;;19.77;15.60;;;;;;;;;;4969812;28;20072;-64
2022/06/26 06:14:24;;;;;;;21.80;17.23;;;;;;;;;;4970710;28;20105;-64
2022/06/26 06:16:50;;;;;;;22.87;17.73;;;;;;;;;;4970516;28;20047;-64
2022/06/26 06:19:17;;;;;;;19.03;17.10;;;;;;;;;;4970401;28;20039;-64
2022/06/26 06:21:43;;;;;;;20.07;16.97;;;;;;;;;;4969957;28;20061;-65
2022/06/26 06:24:09;;;;;;;20.97;17.47;;;;;;;;;;4970449;28;20047;-65
2022/06/26 06:26:36;;;;;;;18.87;16.97;;;;;;;;;;4970503;28;20412;-64
2022/06/26 06:29:03;;;;;;;21.37;17.83;;;;;;;;;;4970325;28;20050;-65
2022/06/26 06:31:29;;;;;;;19.07;16.93;;;;;;;;;;4970352;28;20039;-65
2022/06/26 06:33:55;;;;;;;24.77;21.77;;;;;;;;;;4962147;28;20058;-65
2022/06/26 06:36:21;;;;;;;27.73;22.20;;;;;;;;;;4970334;28;20047;-64
2022/06/26 06:38:47;;;;;;;36.77;24.77;;;;;;;;;;4970088;28;20564;-64
2022/06/26 06:41:13;;;;;;;25.60;21.17;;;;;;;;;;4967274;28;20035;-64
2022/06/26 06:43:39;;;;;;;27.37;21.23;;;;;;;;;;4969243;28;20497;-65
2022/06/26 06:46:05;;;;;;;23.60;20.40;;;;;;;;;;4965754;28;20046;-64
2022/06/26 06:48:31;;;;;;;29.00;21.63;;;;;;;;;;4969978;28;20116;-65
2022/06/26 06:50:57;;;;;;;23.23;20.83;;;;;;;;;;4952262;28;20057;-65
2022/06/26 06:53:24;;;;;;;23.87;21.00;;;;;;;;;;4965795;28;20051;-64
2022/06/26 06:55:49;;;;;;;24.33;21.40;;;;;;;;;;4969758;28;20053;-65
2022/06/26 06:58:16;;;;;;;25.17;22.57;;;;;;;;;;4966025;28;20062;-65
2022/06/26 07:00:42;;;;;;;28.17;23.70;;;;;;;;;;4969575;28;20149;-65
2022/06/26 07:03:08;;;;;;;27.57;22.20;;;;;;;;;;4969232;28;20129;-65
2022/06/26 07:05:34;;;;;;;29.20;23.57;;;;;;;;;;4969671;28;20046;-65
2022/06/26 07:08:00;;;;;;;29.27;23.43;;;;;;;;;;4969338;28;20390;-65
2022/06/26 07:10:26;;;;;;;28.20;23.27;;;;;;;;;;4969204;28;20122;-65
2022/06/26 07:12:56;;;;;;;23.93;20.60;;;;;;;;;;4965467;28;20042;-65
2022/06/26 07:15:22;;;;;;;28.83;21.07;;;;;;;;;;4962870;28;20043;-65
2022/06/26 07:17:48;;;;;;;23.63;20.70;;;;;;;;;;4967978;28;20050;-66
2022/06/26 07:20:16;;;;;;;25.10;22.23;;;;;;;;;;4966723;28;20070;-66
2022/06/26 07:22:42;;;;;;;25.37;20.87;;;;;;;;;;4967038;28;20065;-65
2022/06/26 07:25:08;;;;;;;25.57;21.33;;;;;;;;;;4968789;28;20051;-66
2022/06/26 07:27:34;;;;;;;24.60;20.87;;;;;;;;;;4962846;28;20775;-66
2022/06/26 07:30:00;;;;;;;23.33;19.40;;;;;;;;;;4969325;28;20489;-66
2022/06/26 07:32:27;;;;;;;22.20;18.03;;;;;;;;;;4965322;28;20047;-66
2022/06/26 07:34:54;;;;;;;18.83;16.83;;;;;;;;;;4964937;28;20061;-64
2022/06/26 07:37:20;;;;;;;23.97;19.10;;;;;;;;;;4965542;28;20101;-64
2022/06/26 07:39:48;;;;;;;23.47;18.40;;;;;;;;;;4968905;28;20051;-64
2022/06/26 07:42:14;;;;;;;20.10;16.20;;;;;;;;;;4968276;28;20043;-63
2022/06/26 07:44:40;;;;;;;24.10;16.80;;;;;;;;;;4968604;28;20046;-63
2022/06/26 07:47:06;;;;;;;17.07;13.83;;;;;;;;;;4968994;28;20058;-64
2022/06/26 07:49:32;;;;;;;17.17;12.40;;;;;;;;;;4948893;28;20590;-64
2022/06/26 07:51:58;;;;;;;17.57;13.43;;;;;;;;;;4968600;28;20054;-63
2022/06/26 07:54:25;;;;;;;13.53;12.10;;;;;;;;;;4968255;28;20049;-63
2022/06/26 07:56:51;;;;;;;14.27;12.27;;;;;;;;;;4966810;28;20086;-64
2022/06/26 07:59:17;;;;;;;12.53;10.57;;;;;;;;;;4949606;28;20070;-65
2022/06/26 08:01:43;;;;;;;11.27;10.07;;;;;;;;;;4968174;28;20125;-65
2022/06/26 08:04:09;;;;;;;13.67;10.83;;;;;;;;;;4951175;28;20565;-65
2022/06/26 08:06:36;;;;;;;12.43;10.60;;;;;;;;;;4968848;28;20074;-65
2022/06/26 08:09:02;;;;;;;10.90;9.77;;;;;;;;;;4967595;28;20411;-63
2022/06/26 08:11:28;;;;;;;10.87;7.80;;;;;;;;;;4968737;28;20039;-64
2022/06/26 08:13:54;;;;;;;11.03;8.40;;;;;;;;;;4967803;28;20078;-64
2022/06/26 08:16:21;;;;;;;11.50;9.07;;;;;;;;;;4963581;28;20043;-63
2022/06/26 08:18:47;;;;;;;9.07;7.70;;;;;;;;;;4948577;28;20549;-63
2022/06/26 08:23:58;;;;;;;6.40;5.37;;;;;;;;;;4958496;28;20047;-63
2022/06/26 08:26:24;;;;;;;8.30;5.13;;;;;;;;;;4967600;28;20046;-62
2022/06/26 08:28:50;;;;;;;6.90;5.40;;;;;;;;;;4968270;28;20062;-67
2022/06/26 08:31:16;;;;;;;7.80;6.10;;;;;;;;;;4967612;28;20133;-64
2022/06/26 08:33:42;;;;;;;10.93;6.77;;;;;;;;;;4968345;28;20055;-63
2022/06/26 08:36:08;;;;;;;7.83;5.90;;;;;;;;;;4968294;28;20057;-62
2022/06/26 08:38:34;;;;;;;11.40;6.37;;;;;;;;;;4968342;28;20445;-63
2022/06/26 08:41:01;;;;;;;12.07;7.20;;;;;;;;;;4961854;28;20050;-63
2022/06/26 08:43:27;;;;;;;12.50;7.33;;;;;;;;;;4968370;28;20043;-62
2022/06/26 08:45:54;;;;;;;12.07;7.30;;;;;;;;;;4965856;28;20070;-63
2022/06/26 08:48:21;;;;;;;5.90;4.57;;;;;;;;;;4971278;28;20061;-63
2022/06/26 08:50:47;;;;;;;5.67;4.23;;;;;;;;;;4971207;28;20039;-63
2022/06/26 08:53:15;;;;;;;9.13;5.30;;;;;;;;;;4971324;28;20051;-63
2022/06/26 08:55:42;;;;;;;5.67;4.33;;;;;;;;;;4963673;28;20531;-63
2022/06/26 08:58:08;;;;;;;5.93;3.87;;;;;;;;;;4971709;28;20038;-64
2022/06/26 09:00:34;;;;;;;7.23;4.20;;;;;;;;;;4971370;28;20093;-62
2022/06/26 09:03:00;;;;;;;8.47;4.33;;;;;;;;;;4971974;28;20043;-62
2022/06/26 09:05:26;;;;;;;6.47;3.53;;;;;;;;;;4971137;28;20070;-62
2022/06/26 09:07:53;;;;;;;7.43;4.27;;;;;;;;;;4970248;28;20038;-63
2022/06/26 09:10:22;;;;;;;5.40;3.73;;;;;;;;;;4971446;28;20046;-63
2022/06/26 09:12:56;;;;;;;7.53;3.60;;;;;;;;;;4971473;28;20047;-62
2022/06/26 09:15:22;;;;;;;8.33;3.93;;;;;;;;;;4971289;28;20113;-62
2022/06/26 09:17:59;;;;;;;6.80;3.77;;;;;;;;;;4971355;28;20050;-62
2022/06/26 09:20:25;;;;;;;6.83;3.43;;;;;;;;;;4965265;28;20070;-63
2022/06/26 09:22:52;;;;;;;5.47;3.43;;;;;;;;;;4970373;28;20627;-63
2022/06/26 09:25:18;;;;;;;4.73;3.87;;;;;;;;;;4965492;28;20493;-63
2022/06/26 09:27:45;;;;;;;6.37;4.00;;;;;;;;;;4971512;28;20055;-62
2022/06/26 09:30:11;;;;;;;5.17;3.80;;;;;;;;;;4971166;28;20050;-62
2022/06/26 09:32:37;;;;;;;6.60;3.47;;;;;;;;;;4971451;28;20182;-63
2022/06/26 09:35:03;;;;;;;5.67;3.40;;;;;;;;;;4970636;28;20133;-62
2022/06/26 09:37:36;;;;;;;6.65;3.25;;;;;;;;;;4971035;28;20120;-62
2022/06/26 09:40:03;;;;;;;4.57;2.55;;;;;;;;;;4969250;28;20047;-63
2022/06/26 09:42:32;;;;;;;3.70;2.43;;;;;;;;;;4970704;28;20557;-63
2022/06/26 09:44:59;;;;;;;4.23;2.60;;;;;;;;;;4970031;28;20039;-62
2022/06/26 09:47:36;;;;;;;5.87;3.23;;;;;;;;;;4969768;28;20046;-65
2022/06/26 09:50:04;;;;;;;6.57;3.07;;;;;;;;;;4970966;28;20042;-62
2022/06/26 09:52:31;;;;;;;5.00;2.93;;;;;;;;;;4971051;28;20067;-62
2022/06/26 09:54:58;;;;;;;4.67;2.67;;;;;;;;;;4971121;28;20109;-62
2022/06/26 09:57:26;;;;;;;4.73;2.90;;;;;;;;;;4971672;28;20039;-62
2022/06/26 09:59:52;;;;;;;5.47;2.90;;;;;;;;;;4968437;28;20047;-62
2022/06/26 10:08:05;;;;;;;8.03;4.00;;;;;;;;;;4966357;28;20047;-65
2022/06/26 10:10:33;;;;;;;5.38;2.88;;;;;;;;;;4969235;28;20038;-63
2022/06/26 10:13:04;;;;;;;6.38;3.70;;;;;;;;;;4970882;28;20053;-63
2022/06/26 10:15:32;;;;;;;5.72;3.40;;;;;;;;;;4969347;28;20577;-63
2022/06/26 10:18:01;;;;;;;5.57;3.13;;;;;;;;;;4967613;28;20070;-62
2022/06/26 10:20:29;;;;;;;4.63;3.33;;;;;;;;;;4968294;28;20564;-63
2022/06/26 10:22:55;;;;;;;5.55;3.45;;;;;;;;;;4969060;28;20421;-62
2022/06/26 10:25:22;;;;;;;6.33;3.53;;;;;;;;;;4969067;28;20046;-63
2022/06/26 10:27:49;;;;;;;6.13;3.05;;;;;;;;;;4970017;28;20039;-63
2022/06/26 10:30:16;;;;;;;7.05;3.67;;;;;;;;;;4970012;28;20050;-63
2022/06/26 10:32:42;;;;;;;9.45;3.65;;;;;;;;;;4968643;28;20078;-62
2022/06/26 10:35:09;;;;;;;3.92;2.80;;;;;;;;;;4968869;28;20050;-62
2022/06/26 10:37:42;;;;;;;5.88;2.78;;;;;;;;;;4966365;28;20080;-63
2022/06/26 10:43:09;;;;;;;7.13;2.97;;;;;;;;;;4967957;28;20047;-63
2022/06/26 10:45:40;;;;;;;7.07;2.85;;;;;;;;;;4968138;28;20070;-63
2022/06/26 10:48:23;;;;;;;4.60;2.30;;;;;;;;;;4969641;28;20605;-63
2022/06/26 10:51:01;;;;;;;5.65;2.78;;;;;;;;;;4970158;28;20062;-63
2022/06/26 10:53:29;;;;;;;5.70;2.90;;;;;;;;;;4967908;28;20043;-63
2022/06/26 10:56:00;;;;;;;8.90;3.60;;;;;;;;;;4964709;28;20050;-62
2022/06/26 10:58:27;;;;;;;4.45;2.72;;;;;;;;;;4969166;28;20493;-63
2022/06/26 11:00:54;;;;;;;5.00;2.80;;;;;;;;;;4969406;28;20089;-63
2022/06/26 11:03:21;;;;;;;7.25;3.10;;;;;;;;;;4969151;28;20159;-63
2022/06/26 11:06:07;;;;;;;5.95;2.97;;;;;;;;;;4969400;28;20057;-63
2022/06/26 11:08:39;;;;;;;5.22;2.65;;;;;;;;;;4964583;28;20500;-63
2022/06/26 11:11:17;;;;;;;4.45;2.38;;;;;;;;;;4969449;28;20051;-63
2022/06/26 11:13:59;;;;;;;6.75;2.75;;;;;;;;;;4969784;28;20047;-63
2022/06/26 11:16:44;;;;;;;5.13;2.80;;;;;;;;;;4969031;28;20054;-63
2022/06/26 11:19:24;;;;;;;4.93;3.00;;;;;;;;;;4967321;28;20046;-63
2022/06/26 11:21:50;;;;;;;5.50;2.83;;;;;;;;;;4966756;28;20057;-63
2022/06/26 11:24:16;;;;;;;6.53;2.42;;;;;;;;;;4969116;28;20051;-63
2022/06/26 11:26:42;;;;;;;3.95;2.47;;;;;;;;;;4968905;28;20049;-63
2022/06/26 11:29:09;;;;;;;5.38;2.22;;;;;;;;;;4969332;28;20726;-63
2022/06/26 11:31:35;;;;;;;5.78;2.30;;;;;;;;;;4968588;28;20891;-63
2022/06/26 11:34:15;;;;;;;3.90;2.17;;;;;;;;;;4969535;28;20046;-63
2022/06/26 11:36:50;;;;;;;3.42;2.00;;;;;;;;;;4968976;28;20078;-63
2022/06/26 11:39:17;;;;;;;5.63;2.80;;;;;;;;;;4969054;28;20537;-64
2022/06/26 11:41:43;;;;;;;5.03;2.40;;;;;;;;;;4968400;28;20038;-62
2022/06/26 11:44:09;;;;;;;6.93;2.50;;;;;;;;;;4967989;28;20038;-62
2022/06/26 11:46:35;;;;;;;7.13;3.22;;;;;;;;;;4965444;28;20050;-62
2022/06/26 11:49:01;;;;;;;5.80;2.50;;;;;;;;;;4969069;28;20077;-63
2022/06/26 11:51:33;;;;;;;6.70;2.72;;;;;;;;;;4968614;28;20101;-62
2022/06/26 11:53:59;;;;;;;8.32;2.75;;;;;;;;;;4968506;28;20094;-62
2022/06/26 11:56:26;;;;;;;4.45;2.63;;;;;;;;;;4968475;28;20402;-62
2022/06/26 11:58:54;;;;;;;8.43;3.15;;;;;;;;;;4968836;28;20093;-62
2022/06/26 12:01:20;;;;;;;5.47;2.67;;;;;;;;;;4968676;28;20039;-62
2022/06/26 12:03:46;;;;;;;9.13;3.20;;;;;;;;;;4968740;28;20081;-63
2022/06/26 12:06:12;;;;;;;4.68;2.63;;;;;;;;;;4968349;28;20046;-63
2022/06/26 12:08:39;;;;;;;7.45;3.38;;;;;;;;;;4969057;28;20046;-62
2022/06/26 12:11:05;;;;;;;7.13;2.88;;;;;;;;;;4968620;28;20098;-62
2022/06/26 12:13:32;;;;;;;7.13;3.42;;;;;;;;;;4968859;28;20057;-63
2022/06/26 12:16:05;;;;;;;8.25;3.28;;;;;;;;;;4965871;28;20039;-62
2022/06/26 12:18:34;;;;;;;4.88;2.72;;;;;;;;;;4967706;28;20050;-63
2022/06/26 12:21:00;;;;;;;8.43;2.78;;;;;;;;;;4972685;28;20043;-62
2022/06/26 12:23:34;;;;;;;5.40;2.20;;;;;;;;;;4972286;28;20057;-62
2022/06/26 12:26:07;;;;;;;3.95;2.03;;;;;;;;;;4972253;28;20039;-62
2022/06/26 12:28:33;;;;;;;4.25;2.22;;;;;;;;;;4969117;28;20046;-62
2022/06/26 12:31:02;;;;;;;6.88;2.53;;;;;;;;;;4972465;28;20039;-62
2022/06/26 12:33:28;;;;;;;3.65;2.05;;;;;;;;;;4972520;28;20047;-62
2022/06/26 12:35:55;;;;;;;4.05;2.28;;;;;;;;;;4971581;28;20384;-62
2022/06/26 12:38:27;;;;;;;8.20;2.28;;;;;;;;;;4972582;28;20039;-62
2022/06/26 12:40:54;;;;;;;14.13;2.63;;;;;;;;;;4972430;28;20046;-62
2022/06/26 12:43:20;;;;;;;4.50;2.20;;;;;;;;;;4971935;28;20047;-62
2022/06/26 12:45:46;;;;;;;4.82;2.40;;;;;;;;;;4971635;28;20062;-62
2022/06/26 12:48:12;;;;;;;4.50;2.08;;;;;;;;;;4972760;28;20105;-62
2022/06/26 12:50:39;;;;;;;5.80;2.67;;;;;;;;;;4971891;28;20047;-62
2022/06/26 12:53:05;;;;;;;24.35;2.28;;;;;;;;;;4971477;28;20086;-62
2022/06/26 12:55:32;;;;;;;5.65;2.58;;;;;;;;;;4971401;28;20078;-62
2022/06/26 12:57:58;;;;;;;5.45;2.10;;;;;;;;;;4971151;28;20042;-62
2022/06/26 13:00:26;;;;;;;7.07;1.70;;;;;;;;;;4971736;28;20045;-62
2022/06/26 13:02:52;;;;;;;3.53;1.70;;;;;;;;;;4966703;28;20046;-62
2022/06/26 13:05:18;;;;;;;4.10;1.77;;;;;;;;;;4970814;28;20472;-62
2022/06/26 13:07:47;;;;;;;5.77;2.10;;;;;;;;;;4971680;28;20082;-62
2022/06/26 13:10:13;;;;;;;5.82;2.25;;;;;;;;;;4971342;28;20053;-62
2022/06/26 13:12:39;;;;;;;3.97;1.53;;;;;;;;;;4972060;28;20394;-62
2022/06/26 13:15:05;;;;;;;4.75;2.13;;;;;;;;;;4971808;28;20043;-62
2022/06/26 13:17:31;;;;;;;7.13;2.23;;;;;;;;;;4970270;28;20043;-62
2022/06/26 13:19:57;;;;;;;3.90;1.60;;;;;;;;;;4971893;28;20042;-62
2022/06/26 13:22:27;;;;;;;7.73;2.20;;;;;;;;;;4987301;28;20046;-61
2022/06/26 13:24:53;;;;;;;7.73;1.93;;;;;;;;;;4990081;28;20724;-62
2022/06/26 13:27:19;;;;;;;4.43;2.03;;;;;;;;;;4990227;28;20050;-63
2022/06/26 13:29:45;;;;;;;5.20;2.30;;;;;;;;;;4989564;28;20045;-63
2022/06/26 13:32:11;;;;;;;8.33;2.77;;;;;;;;;;4990455;28;20046;-62
2022/06/26 13:34:37;;;;;;;4.60;2.50;;;;;;;;;;4990017;28;20054;-63
2022/06/26 13:37:04;;;;;;;3.63;1.93;;;;;;;;;;4991053;28;20388;-62
2022/06/26 13:39:31;;;;;;;5.17;2.27;;;;;;;;;;4989556;28;20065;-62
2022/06/26 13:41:57;;;;;;;6.70;2.37;;;;;;;;;;4990739;28;20039;-62
2022/06/26 13:44:25;;;;;;;4.90;2.50;;;;;;;;;;4992651;28;20046;-62
2022/06/26 13:46:51;;;;;;;6.97;2.30;;;;;;;;;;4991127;28;20073;-62
2022/06/26 13:49:17;;;;;;;4.07;2.47;;;;;;;;;;4991029;28;20069;-63
2022/06/26 13:51:46;;;;;;;4.63;2.23;;;;;;;;;;4991181;28;20052;-62
2022/06/26 13:54:12;;;;;;;5.13;2.27;;;;;;;;;;4982387;28;20097;-62
2022/06/26 13:56:38;;;;;;;5.63;2.20;;;;;;;;;;4990569;28;20053;-63
2022/06/26 13:59:04;;;;;;;5.73;2.03;;;;;;;;;;4988268;28;20136;-62
2022/06/26 14:01:30;;;;;;;7.43;2.07;;;;;;;;;;4985209;28;20042;-62
2022/06/26 14:03:56;;;;;;;6.50;1.70;;;;;;;;;;4982998;28;20057;-62
2022/06/26 14:06:25;;;;;;;4.37;2.27;;;;;;;;;;4989967;28;20050;-62
2022/06/26 14:08:51;;;;;;;7.17;2.30;;;;;;;;;;4989914;28;20093;-62
2022/06/26 14:11:17;;;;;;;5.07;2.43;;;;;;;;;;4990608;28;20068;-63
2022/06/26 14:13:43;;;;;;;5.57;2.20;;;;;;;;;;4989138;28;20162;-62
2022/06/26 14:16:10;;;;;;;4.10;1.90;;;;;;;;;;4989653;28;20138;-62
2022/06/26 14:18:36;;;;;;;4.57;1.93;;;;;;;;;;4990748;28;20054;-62
2022/06/26 14:21:03;;;;;;;6.00;2.03;;;;;;;;;;4983897;28;20051;-62
2022/06/26 14:26:16;;;;;;;3.80;2.03;;;;;;;;;;4969834;28;20078;-62
2022/06/26 14:28:43;;;;;;;6.43;2.40;;;;;;;;;;4970919;28;20046;-63
2022/06/26 14:31:09;;;;;;;5.47;2.20;;;;;;;;;;4962955;28;20464;-62
2022/06/26 14:33:35;;;;;;;5.00;2.20;;;;;;;;;;4970069;28;20456;-62
2022/06/26 14:36:03;;;;;;;6.30;2.53;;;;;;;;;;4969117;28;20150;-62
2022/06/26 14:38:29;;;;;;;6.83;1.87;;;;;;;;;;4967250;28;20051;-63
2022/06/26 14:40:55;;;;;;;5.63;2.00;;;;;;;;;;4965865;28;20121;-62
2022/06/26 14:43:21;;;;;;;4.90;2.13;;;;;;;;;;4969838;28;20047;-62
2022/06/26 14:45:50;;;;;;;6.67;2.10;;;;;;;;;;4969545;28;20051;-62
2022/06/26 14:48:16;;;;;;;8.03;2.20;;;;;;;;;;4969753;28;20085;-62
2022/06/26 14:50:42;;;;;;;5.97;2.07;;;;;;;;;;4970037;28;20485;-62